»·PEaware :: N71K KSNA-KSBA

N71K :: KSNA-KSBA

FLIGHT INFORMATION

Flight Status: Arrived
Operator: Privately registered:
United States
More flights under this callsign
Pilot: Ryan C. (15122)
Aircraft: CESSNA 177 CARDINAL
(C177)
More flights by this aircraft type
Origin: KSNA John Wayne-Orange Co
United States
Destination: KSBA Santa Barbara Mun
United States
More flights between these airports :: More routes between these airports
Route: +SLI V23 LAX V299 VTU VTU282R KWANG
File this flight plan on PilotEdge
Remarks: CSTP21
Altitude:
(Current/Filed)
6,000ft
Speed:
(Current/Filed)
140kts
Departed: 25-Jan-19 07:20 PM
Arrived: 25-Jan-19 08:15 PM
Distance/Time
Traveled:
108nm/0:54
Distance/Time
To Go:
Arrived

Flight Plot

Page will automatically refresh every two minutes.


Map Options




Map Legend


Flown Route
Filed Route
Departure Airport
Arrival Airport
Navaid (VOR, NDB)
Fix

Horizontal Profiles

Position Reports

Time Latitude Longitude Heading Altitude Ground
Speed
25-Jan-19 19:02 33.676217 -117.871054 219 49ft 0kts
25-Jan-19 19:03 33.676217 -117.871054 219 49ft 0kts
25-Jan-19 19:04 33.676217 -117.871054 219 49ft 0kts
25-Jan-19 19:05 33.676217 -117.871054 219 49ft 0kts
25-Jan-19 19:07 33.676217 -117.871054 219 49ft 0kts
25-Jan-19 19:08 33.676217 -117.871054 219 49ft 0kts
25-Jan-19 19:09 33.676217 -117.871054 219 49ft 0kts
25-Jan-19 19:10 33.676217 -117.871054 219 49ft 0kts
25-Jan-19 19:11 33.676217 -117.871054 219 49ft 0kts
25-Jan-19 19:12 33.676217 -117.871054 219 49ft 0kts
25-Jan-19 19:13 33.676045 -117.870996 140 49ft 0kts
25-Jan-19 19:14 33.675813 -117.870670 127 49ft 6kts
25-Jan-19 19:15 33.677746 -117.869069 27 46ft 11kts
25-Jan-19 19:16 33.680032 -117.867807 28 42ft 8kts
25-Jan-19 19:17 33.681103 -117.867032 128 40ft 0kts
25-Jan-19 19:18 33.681271 -117.866622 96 40ft 0kts
25-Jan-19 19:19 33.680605 -117.865741 192 40ft 9kts
25-Jan-19 19:20 33.666507 -117.874793 210 480ft 89kts
25-Jan-19 19:21 33.650668 -117.897055 234 1577ft 89kts
25-Jan-19 19:22 33.636190 -117.922086 263 2532ft 96kts
25-Jan-19 19:23 33.647408 -117.947029 304 3613ft 82kts
25-Jan-19 19:24 33.660968 -117.970364 307 4509ft 88kts
25-Jan-19 19:25 33.674662 -117.994104 308 5394ft 86kts
25-Jan-19 19:26 33.689204 -118.018673 310 6009ft 109kts
25-Jan-19 19:27 33.709148 -118.051775 309 6001ft 132kts
25-Jan-19 19:28 33.730513 -118.087718 308 5998ft 130kts
25-Jan-19 19:28 33.747765 -118.116939 308 5999ft 129kts
25-Jan-19 19:29 33.768481 -118.152098 308 6000ft 129kts
25-Jan-19 19:30 33.789090 -118.187104 308 6001ft 128kts
25-Jan-19 19:31 33.808150 -118.219519 307 6002ft 127kts
25-Jan-19 19:33 33.833299 -118.262345 306 6004ft 127kts
25-Jan-19 19:33 33.850259 -118.291263 305 6005ft 127kts
25-Jan-19 19:34 33.870476 -118.325772 304 6006ft 128kts
25-Jan-19 19:35 33.890923 -118.360721 303 6005ft 129kts
25-Jan-19 19:36 33.911092 -118.395630 306 6007ft 142kts
25-Jan-19 19:37 33.933910 -118.436987 292 6002ft 153kts
25-Jan-19 19:38 33.949346 -118.484860 293 6004ft 153kts
25-Jan-19 19:39 33.964618 -118.532887 294 6002ft 153kts
25-Jan-19 19:40 33.979439 -118.580185 292 6002ft 152kts
25-Jan-19 19:41 33.994158 -118.627676 294 6005ft 151kts
25-Jan-19 19:42 34.008511 -118.673207 294 6007ft 149kts
25-Jan-19 19:43 34.023195 -118.719689 295 6013ft 147kts
25-Jan-19 19:44 34.037259 -118.764298 294 6019ft 144kts
25-Jan-19 19:45 34.049488 -118.809811 292 6027ft 140kts
25-Jan-19 19:46 34.061328 -118.854202 292 6030ft 138kts
25-Jan-19 19:47 34.072894 -118.897635 292 6033ft 137kts
25-Jan-19 19:48 34.084421 -118.940999 292 6034ft 136kts
25-Jan-19 19:49 34.095892 -118.984223 292 6033ft 135kts
25-Jan-19 19:50 34.106789 -119.025329 292 6036ft 136kts
25-Jan-19 19:51 34.119601 -119.064921 301 6034ft 134kts
25-Jan-19 19:52 34.136279 -119.104820 300 6031ft 132kts
25-Jan-19 19:53 34.152798 -119.144325 300 6027ft 131kts
25-Jan-19 19:54 34.169061 -119.183250 300 6024ft 130kts
25-Jan-19 19:55 34.185096 -119.221669 299 6022ft 128kts
25-Jan-19 19:56 34.200599 -119.258857 298 6019ft 127kts
25-Jan-19 19:57 34.216379 -119.296757 298 6018ft 126kts
25-Jan-19 19:58 34.232828 -119.334158 299 6018ft 125kts
25-Jan-19 19:59 34.248601 -119.371514 298 6018ft 126kts
25-Jan-19 20:00 34.264428 -119.409518 298 5812ft 131kts
25-Jan-19 20:01 34.280681 -119.447771 298 5005ft 130kts
25-Jan-19 20:02 34.297138 -119.485878 298 4309ft 130kts
25-Jan-19 20:03 34.313246 -119.523027 298 4020ft 118kts
25-Jan-19 20:04 34.328121 -119.557892 298 4023ft 118kts
25-Jan-19 20:05 34.343063 -119.593414 298 3963ft 123kts
25-Jan-19 20:06 34.360028 -119.633503 298 3282ft 140kts
25-Jan-19 20:07 34.376715 -119.672384 299 3120ft 125kts
25-Jan-19 20:08 34.397951 -119.706042 311 3246ft 127kts
25-Jan-19 20:09 34.419243 -119.732695 308 2669ft 94kts
25-Jan-19 20:10 34.429117 -119.760863 276 1493ft 86kts
25-Jan-19 20:11 34.428613 -119.787397 271 804ft 71kts
25-Jan-19 20:12 34.428300 -119.811281 269 465ft 70kts
25-Jan-19 20:13 34.427913 -119.833773 268 65ft 65kts
25-Jan-19 20:14 34.428630 -119.841906 345 15ft 0kts
25-Jan-19 20:15 34.429803 -119.842011 52 15ft 8kts
25-Jan-19 20:16 34.431092 -119.838452 70 15ft 14kts
25-Jan-19 20:17 34.432442 -119.835914 68 15ft 0kts
25-Jan-19 20:18 34.432442 -119.835914 68 15ft 0kts
25-Jan-19 20:19 34.432442 -119.835914 68 15ft 0kts
25-Jan-19 20:20 34.432442 -119.835914 68 15ft 0kts
25-Jan-19 20:21 34.432442 -119.835914 68 15ft 0kts
25-Jan-19 20:22 34.432442 -119.835914 68 15ft 0kts
25-Jan-19 20:23 34.432442 -119.835914 68 15ft 0kts
25-Jan-19 20:24 34.432442 -119.835914 68 15ft 0kts
25-Jan-19 20:25 34.432442 -119.835914 68 15ft 0kts
25-Jan-19 20:26 34.432442 -119.835914 68 15ft 0kts
25-Jan-19 20:27 34.432442 -119.835914 68 15ft 0kts
25-Jan-19 20:28 34.432442 -119.835914 68 15ft 0kts

Navigation Log

Ident Type
Flight plan parsing failed, navigation log unavailable